Thunder radar more information blitzortung!


Radar de pluja more information rain snow radar


Visita la nostra xarxa de llocs de meteo:

Template documentation
and downloads

And another site



No particular awareness of the weather is required.    There are no Weather-warnings

Pagina Historial Weather Underground text

Diari Resum Juny 13, 2017 Unitats:  Imperial    Mètric   Tant
« Previous Dia
SegĂźent Dia »
Diari Setmana Mensual Anual Personalitzada
  Maxima: Minima: Media:
Temperatura: 96.8 °F 66.7 °F 85.5 °F
Punt de rosada: 59.2 °F 39 °F 50.9 °F
Humitat: 54 % 17 % 32 %
Wind Speed: 13.8 mph 0 mph 4.5 mph
RĂ fegues de vent: 13.8 mph - -
Vent:- - SSW
Pression baro: 29.9 in 29.8 in -
Precipitacions: 0 in    
Historical Graphs
 
 
Dades de taula per Juny 13, 2017
Temps Temperatura Punt de rosada Pression baro Vent Wind Speed RĂ fegues de vent Humitat Rainfall Rate (Hourly)
00:00 68 °F 49.3 °F 29.9 in Calm   2 mph 51 % 0 in
00:04 75.7 °F 49.6 °F 29.9 in SW 2.6 mph 2.6 mph 40 % 0 in
00:10 67.5 °F 48.7 °F 29.9 in SW 1 mph 1 mph 51 % 0 in
00:20 67.3 °F 48.9 °F 29.9 in SW 1 mph 1 mph 52 % 0 in
00:30 67.1 °F 48.9 °F 29.9 in SW 1 mph 2 mph 52 % 0 in
00:40 66.9 °F 48.7 °F 29.9 in Calm   1 mph 52 % 0 in
00:50 66.9 °F 49.3 °F 29.9 in Calm     53 % 0 in
01:00 66.9 °F 49.3 °F 29.9 in Calm     53 % 0 in
01:10 67.1 °F 49.8 °F 29.9 in Calm     54 % 0 in
01:20 66.9 °F 49.6 °F 29.9 in Calm     54 % 0 in
01:30 66.7 °F 49.6 °F 29.9 in Calm   1 mph 54 % 0 in
01:40 66.7 °F 49.6 °F 29.9 in Calm   1 mph 54 % 0 in
01:50 67.3 °F 50.2 °F 29.9 in Calm   2 mph 54 % 0 in
02:00 67.6 °F 50.4 °F 29.9 in SW 1 mph 2 mph 54 % 0 in
02:10 68 °F 50.2 °F 29.9 in Calm   1 mph 53 % 0 in
02:20 68.5 °F 50.2 °F 29.9 in SW 1 mph 2 mph 52 % 0 in
02:30 69.1 °F 50.7 °F 29.9 in SW 1 mph 2 mph 52 % 0 in
02:40 70.7 °F 51.6 °F 29.9 in Calm   1 mph 51 % 0 in
02:50 71.8 °F 52.7 °F 29.9 in Calm   1 mph 51 % 0 in
03:00 72.7 °F 53.1 °F 29.9 in Calm     50 % 0 in
03:10 73.9 °F 53.6 °F 29.9 in SSE 1 mph 1 mph 49 % 0 in
03:20 75.2 °F 54.7 °F 29.9 in Calm   1 mph 49 % 0 in
03:30 75.6 °F 54.5 °F 29.9 in East 1 mph 2 mph 48 % 0 in
03:40 75.6 °F 54.5 °F 29.9 in ESE 1 mph 2 mph 48 % 0 in
03:50 76.6 °F 54.9 °F 29.9 in SW 1 mph 2 mph 47 % 0 in
03:55 77 °F 54.7 °F 29.9 in Calm     46 % 0 in
04:05 78.1 °F 55.6 °F 29.9 in Calm   3 mph 46 % 0 in
04:15 79 °F 55.8 °F 29.9 in Calm   2 mph 45 % 0 in
04:25 79.7 °F 55.9 °F 29.9 in ENE 1 mph 3 mph 44 % 0 in
04:35 80.1 °F 56.1 °F 29.9 in ESE 2 mph 2 mph 44 % 0 in
04:45 81 °F 56.5 °F 29.9 in SSE 1 mph 1 mph 43 % 0 in
04:55 81.7 °F 57 °F 29.9 in SSE 2 mph 2 mph 43 % 0 in
05:05 83.1 °F 57.6 °F 29.9 in SSW 1 mph 4 mph 42 % 0 in
05:15 83.7 °F 57.6 °F 29.9 in SW 3 mph 3 mph 41 % 0 in
05:25 84.9 °F 57.9 °F 29.9 in SW 1 mph 3 mph 40 % 0 in
05:35 86 °F 58.8 °F 29.9 in SW 1 mph 3 mph 40 % 0 in
10:38 87.1 °F 59.2 °F 29.9 in SW 1.2 mph 1.6 mph 39 % 0 in
10:43 86.5 °F 58.6 °F 29.9 in SW 6.9 mph 6.9 mph 39 % 0 in
10:48 86.7 °F 58.1 °F 29.9 in SSE 4.6 mph 4.6 mph 38 % 0 in
10:53 87.3 °F 58.6 °F 29.9 in South 4.9 mph 4.9 mph 38 % 0 in
10:58 86.9 °F 57.6 °F 29.9 in WSW 3.8 mph 3.8 mph 37 % 0 in
11:03 88.3 °F 57.9 °F 29.9 in SSE 4.6 mph 4.6 mph 36 % 0 in
11:08 88.9 °F 58.5 °F 29.9 in SSW 2.3 mph 2.3 mph 36 % 0 in
11:13 89.2 °F 58.8 °F 29.9 in West 3.6 mph 3.6 mph 36 % 0 in
11:18 88.5 °F 57.4 °F 29.9 in South 4.6 mph 4.6 mph 35 % 0 in
11:23 88.2 °F 57 °F 29.9 in SSE 6.9 mph 6.9 mph 35 % 0 in
11:28 89.1 °F 57.7 °F 29.9 in SSW 3.5 mph 3.5 mph 35 % 0 in
11:38 89.6 °F 56.7 °F 29.9 in WSW 6.9 mph 6.9 mph 33 % 0 in
11:43 89.6 °F 56.7 °F 29.9 in ENE 3.5 mph 3.5 mph 33 % 0 in
11:48 89.1 °F 56.1 °F 29.9 in ESE 2.3 mph 3.1 mph 33 % 0 in
11:53 90.3 °F 57.4 °F 29.9 in South 1.2 mph 1.4 mph 33 % 0 in
11:54 90.3 °F 57.4 °F 29.9 in South 1.2 mph 1.4 mph 33 % 0 in
11:59 90.1 °F 57.2 °F 29.9 in South 1.2 mph 1.4 mph 33 % 0 in
12:04 89.4 °F 56.5 °F 29.9 in ESE 6 mph 6 mph 33 % 0 in
12:09 90.9 °F 56.8 °F 29.9 in SSE 3.5 mph 3.5 mph 32 % 0 in
12:14 91.4 °F 57.4 °F 29.9 in SW 5.8 mph 5.8 mph 32 % 0 in
12:19 91.2 °F 56.5 °F 29.9 in SE 4.9 mph 4.9 mph 31 % 0 in
12:24 90.7 °F 55.9 °F 29.9 in ESE 1.6 mph 4 mph 31 % 0 in
12:29 90 °F 55.2 °F 29.9 in SW 5.8 mph 5.8 mph 31 % 0 in
12:34 91.2 °F 56.5 °F 29.9 in WSW 6 mph 6 mph 31 % 0 in
12:39 91.8 °F 55.9 °F 29.9 in SE 2.6 mph 2.6 mph 30 % 0 in
12:44 91.9 °F 56.1 °F 29.9 in South 2.4 mph 3.3 mph 30 % 0 in
12:49 93.2 °F 57.2 °F 29.9 in SW 6.9 mph 6.9 mph 30 % 0 in
12:54 93.2 °F 56.1 °F 29.9 in SE 3.5 mph 3.5 mph 29 % 0 in
13:04 91 °F 55.2 °F 29.9 in ESE 6.9 mph 6.9 mph 30 % 0 in
13:09 91 °F 55.2 °F 29.9 in NE 5.8 mph 5.8 mph 30 % 0 in
13:14 90.3 °F 54.7 °F 29.9 in East 8.1 mph 8.1 mph 30 % 0 in
13:19 90.7 °F 55 °F 29.9 in ESE 9.2 mph 9.2 mph 30 % 0 in
13:24 90.7 °F 55 °F 29.9 in East 9.2 mph 9.2 mph 30 % 0 in
13:29 90.9 °F 55 °F 29.9 in ESE 6.2 mph 6.2 mph 30 % 0 in
13:34 90.9 °F 55 °F 29.9 in ENE 9.2 mph 9.2 mph 30 % 0 in
13:39 90.9 °F 55 °F 29.9 in ESE 5.8 mph 5.8 mph 30 % 0 in
13:44 90.9 °F 55 °F 29.9 in SW 5.8 mph 5.8 mph 30 % 0 in
13:49 93 °F 56.1 °F 29.9 in ESE 6 mph 6 mph 29 % 0 in
13:54 92.5 °F 55.6 °F 29.9 in NE 6.9 mph 6.9 mph 29 % 0 in
13:59 91.9 °F 54.1 °F 29.9 in East 4.6 mph 4.6 mph 28 % 0 in
14:04 92.7 °F 55.8 °F 29.9 in SSW 4 mph 4 mph 29 % 0 in
14:09 93 °F 55 °F 29.9 in WSW 8.1 mph 8.1 mph 28 % 0 in
14:14 94.1 °F 55.9 °F 29.9 in ESE 5.9 mph 5.9 mph 28 % 0 in
14:19 94.3 °F 56.1 °F 29.8 in ESE 2.3 mph 2.3 mph 28 % 0 in
14:24 94.1 °F 55 °F 29.8 in WSW 3.8 mph 3.8 mph 27 % 0 in
14:29 95 °F 54.7 °F 29.8 in SW 5.8 mph 5.8 mph 26 % 0 in
14:34 95.4 °F 55 °F 29.8 in SW 6.9 mph 6.9 mph 26 % 0 in
14:39 94.8 °F 55.6 °F 29.8 in SSW 4.6 mph 4.6 mph 27 % 0 in
14:44 94.8 °F 55.6 °F 29.8 in SW 10.5 mph 10.5 mph 27 % 0 in
14:49 93.7 °F 53.8 °F 29.9 in SW 9.2 mph 9.2 mph 26 % 0 in
14:54 94.5 °F 55.2 °F 29.9 in SW 8.1 mph 8.1 mph 27 % 0 in
14:59 93.9 °F 53.8 °F 29.9 in WSW 9.2 mph 9.2 mph 26 % 0 in
15:04 94.3 °F 54.1 °F 29.9 in WSW 7.4 mph 7.4 mph 26 % 0 in
15:09 93.9 °F 53.8 °F 29.9 in SSW 6.9 mph 6.9 mph 26 % 0 in
15:14 94.5 °F 54.3 °F 29.9 in West 6.9 mph 6.9 mph 26 % 0 in
15:19 94.6 °F 54.3 °F 29.9 in SSW 6.9 mph 6.9 mph 26 % 0 in
15:24 94.5 °F 54.3 °F 29.9 in SSW 5.8 mph 5.8 mph 26 % 0 in
15:29 94.8 °F 54.7 °F 29.9 in WSW 4.3 mph 4.3 mph 26 % 0 in
15:34 94.1 °F 54 °F 29.9 in WSW 6.9 mph 6.9 mph 26 % 0 in
15:39 94.8 °F 54.7 °F 29.9 in SW 8.1 mph 8.1 mph 26 % 0 in
15:44 95.7 °F 54.3 °F 29.9 in ESE 2.4 mph 2.4 mph 25 % 0 in
15:49 96.3 °F 53.6 °F 29.9 in South 8.1 mph 8.1 mph 24 % 0 in
15:54 96.3 °F 54.7 °F 29.9 in WSW 5.8 mph 5.8 mph 25 % 0 in
15:59 96.8 °F 54.1 °F 29.9 in SW 5.4 mph 5.4 mph 24 % 0 in
16:04 96.8 °F 54.1 °F 29.9 in West 7.4 mph 7.4 mph 24 % 0 in
16:09 96.8 °F 54.1 °F 29.9 in South 6.9 mph 6.9 mph 24 % 0 in
16:14 96.8 °F 54.1 °F 29.9 in SW 3.5 mph 3.5 mph 24 % 0 in
16:19 96.3 °F 53.6 °F 29.9 in ESE 5.8 mph 5.8 mph 24 % 0 in
16:24 94.8 °F 53.4 °F 29.9 in SW 5.8 mph 5.8 mph 25 % 0 in
16:29 93.7 °F 52.5 °F 29.9 in East 4 mph 4 mph 25 % 0 in
16:34 94.5 °F 53.2 °F 29.9 in WNW 4.6 mph 4.6 mph 25 % 0 in
16:39 95 °F 51.4 °F 29.9 in SW 9.2 mph 9.2 mph 23 % 0 in
16:44 94.8 °F 52.3 °F 29.9 in SW 8.1 mph 8.1 mph 24 % 0 in
16:49 94.3 °F 52 °F 29.9 in SW 5.8 mph 5.8 mph 24 % 0 in
16:54 94.1 °F 50.5 °F 29.9 in SW 5.8 mph 5.8 mph 23 % 0 in
16:59 94.3 °F 50.7 °F 29.9 in SW 7.1 mph 7.1 mph 23 % 0 in
17:04 94.1 °F 50.5 °F 29.9 in SW 5.8 mph 5.8 mph 23 % 0 in
17:09 94.3 °F 50.7 °F 29.9 in SW 8.1 mph 8.1 mph 23 % 0 in
17:14 93.4 °F 48.9 °F 29.9 in SSW 6.9 mph 6.9 mph 22 % 0 in
17:19 93.9 °F 50.5 °F 29.8 in SW 5.8 mph 5.8 mph 23 % 0 in
17:24 94.3 °F 49.6 °F 29.8 in WSW 5.8 mph 5.8 mph 22 % 0 in
17:29 94.1 °F 49.5 °F 29.8 in SW 6.9 mph 6.9 mph 22 % 0 in
17:34 93.7 °F 49.1 °F 29.8 in SSW 6.9 mph 6.9 mph 22 % 0 in
17:35 93.9 °F 49.3 °F 29.8 in SW 4.6 mph 4.6 mph 22 % 0 in
17:40 94.1 °F 49.5 °F 29.8 in SW 5.8 mph 5.8 mph 22 % 0 in
17:45 94.1 °F 49.5 °F 29.8 in WSW 6.9 mph 6.9 mph 22 % 0 in
17:50 93.2 °F 48.7 °F 29.8 in SSW 8.1 mph 8.1 mph 22 % 0 in
17:55 92.7 °F 46.9 °F 29.8 in West 8.1 mph 8.1 mph 21 % 0 in
18:00 92.7 °F 46.9 °F 29.8 in SW 9.2 mph 9.2 mph 21 % 0 in
18:02 92.7 °F 46.9 °F 29.8 in SW 5.8 mph 5.8 mph 21 % 0 in
18:07 92.3 °F 46.8 °F 29.8 in SW 8.1 mph 8.1 mph 21 % 0 in
18:12 92.5 °F 45.7 °F 29.8 in WSW 5.8 mph 5.8 mph 20 % 0 in
18:17 92.3 °F 45.3 °F 29.8 in WSW 8.1 mph 8.1 mph 20 % 0 in
18:22 91.8 °F 43.5 °F 29.8 in SSW 13.8 mph 13.8 mph 19 % 0 in
18:27 91.9 °F 43.9 °F 29.8 in SW 6.9 mph 6.9 mph 19 % 0 in
18:32 91.6 °F 43.5 °F 29.8 in SSW 8.1 mph 8.1 mph 19 % 0 in
18:37 91.6 °F 42.1 °F 29.8 in SW 8.1 mph 8.1 mph 18 % 0 in
18:42 91 °F 40.3 °F 29.8 in West 9.2 mph 9.2 mph 17 % 0 in
18:47 90.9 °F 41.5 °F 29.8 in SW 9.2 mph 9.2 mph 18 % 0 in
18:52 90.9 °F 41.5 °F 29.8 in WSW 9.2 mph 9.2 mph 18 % 0 in
18:57 90.3 °F 39.6 °F 29.8 in SSW 6.9 mph 6.9 mph 17 % 0 in
19:02 90.3 °F 39.6 °F 29.8 in SW 6.9 mph 6.9 mph 17 % 0 in
19:07 90.1 °F 39.4 °F 29.8 in WSW 6.9 mph 6.9 mph 17 % 0 in
19:12 89.6 °F 39 °F 29.8 in SSW 6.9 mph 6.9 mph 17 % 0 in
19:17 89.2 °F 40.3 °F 29.8 in SW 6.9 mph 6.9 mph 18 % 0 in
19:22 88.9 °F 39.9 °F 29.8 in SW 11.5 mph 11.5 mph 18 % 0 in
19:27 88.2 °F 40.6 °F 29.8 in SSW 8.1 mph 8.1 mph 19 % 0 in
19:32 88.3 °F 42.3 °F 29.8 in SSW 6.9 mph 6.9 mph 20 % 0 in
19:37 88.2 °F 42.1 °F 29.8 in SW 4.6 mph 4.6 mph 20 % 0 in
19:42 87.3 °F 42.6 °F 29.8 in SW 6.4 mph 6.4 mph 21 % 0 in
19:47 87.1 °F 42.4 °F 29.8 in SW 9.2 mph 9.2 mph 21 % 0 in
19:52 86.7 °F 43.3 °F 29.8 in SW 6.9 mph 6.9 mph 22 % 0 in
19:57 86.5 °F 43.2 °F 29.8 in WSW 4.6 mph 4.6 mph 22 % 0 in
20:02 86 °F 42.6 °F 29.8 in SW 8.1 mph 8.1 mph 22 % 0 in
20:07 85.8 °F 43.7 °F 29.8 in SW 5.6 mph 5.6 mph 23 % 0 in
20:12 85.5 °F 43.3 °F 29.8 in SSW 6.9 mph 6.9 mph 23 % 0 in
20:17 84.9 °F 44.1 °F 29.8 in WSW 5.8 mph 5.8 mph 24 % 0 in
20:22 84.6 °F 43.9 °F 29.8 in WSW 4.6 mph 4.6 mph 24 % 0 in
20:27 84.2 °F 44.6 °F 29.8 in SW 5.8 mph 5.8 mph 25 % 0 in
20:32 83.8 °F 44.2 °F 29.8 in SW 5.9 mph 5.9 mph 25 % 0 in
20:37 83.7 °F 45.1 °F 29.8 in WSW 4.6 mph 4.6 mph 26 % 0 in
20:42 83.3 °F 44.8 °F 29.8 in SSW 6.2 mph 6.2 mph 26 % 0 in
20:47 82.9 °F 45.5 °F 29.8 in SW 4.6 mph 4.6 mph 27 % 0 in
20:52 82.4 °F 45.1 °F 29.8 in SW 5.4 mph 5.4 mph 27 % 0 in
20:57 82 °F 45.7 °F 29.8 in WSW 5.8 mph 5.8 mph 28 % 0 in
21:02 81.7 °F 45.3 °F 29.9 in SW 4.6 mph 4.6 mph 28 % 0 in
21:07 81.3 °F 45.1 °F 29.9 in SW 4.6 mph 4.6 mph 28 % 0 in
21:12 81 °F 44.8 °F 29.9 in SW 6.9 mph 6.9 mph 28 % 0 in
21:17 80.6 °F 45.3 °F 29.8 in SW 7.4 mph 7.4 mph 29 % 0 in
21:22 80.2 °F 45.1 °F 29.8 in South 4.6 mph 4.6 mph 29 % 0 in
21:27 79.9 °F 45.7 °F 29.8 in South 4.6 mph 4.6 mph 30 % 0 in
21:32 79.5 °F 45.3 °F 29.9 in SW 3.5 mph 3.5 mph 30 % 0 in
21:37 79.2 °F 45.9 °F 29.9 in SSW 3.1 mph 3.1 mph 31 % 0 in
21:42 78.8 °F 46.4 °F 29.9 in SW 5.8 mph 5.8 mph 32 % 0 in
21:47 78.6 °F 47.1 °F 29.9 in SW 2.4 mph 2.4 mph 33 % 0 in
21:52 78.4 °F 46.9 °F 29.9 in SW 3.5 mph 3.5 mph 33 % 0 in
21:57 78.1 °F 47.5 °F 29.9 in WSW 3.5 mph 3.5 mph 34 % 0 in
22:02 77.9 °F 48 °F 29.9 in SW 1.6 mph 1.6 mph 35 % 0 in
22:07 77.7 °F 48.6 °F 29.9 in SW 2.4 mph 2.4 mph 36 % 0 in
22:12 77.5 °F 48.6 °F 29.9 in SW 2.3 mph 2.3 mph 36 % 0 in
22:22 77.2 °F 48.9 °F 29.9 in West 1.2 mph   37 % 0 in
22:27 77.2 °F 48.9 °F 29.9 in NW 1.2 mph   37 % 0 in
22:32 77 °F 49.5 °F 29.9 in Calm     38 % 0 in
22:37 77 °F 48.7 °F 29.9 in West 2.3 mph 2.3 mph 37 % 0 in
22:42 76.8 °F 49.3 °F 29.9 in West 2.3 mph 2.3 mph 38 % 0 in
22:47 76.8 °F 49.3 °F 29.9 in West 2 mph 2 mph 38 % 0 in
22:52 76.8 °F 49.3 °F 29.9 in WSW 2.3 mph 2.3 mph 38 % 0 in
22:57 76.6 °F 49.8 °F 29.9 in Calm     39 % 0 in
23:02 76.5 °F 49.6 °F 29.9 in West 2.3 mph   39 % 0 in
23:07 76.1 °F 49.3 °F 29.9 in West 2.3 mph 2.3 mph 39 % 0 in
23:12 76.1 °F 49.3 °F 29.9 in West 1.4 mph 1.4 mph 39 % 0 in
23:17 76.1 °F 50 °F 29.9 in WSW 1.4 mph 1.4 mph 40 % 0 in
23:22 75.9 °F 49.8 °F 29.9 in West 2.3 mph 2.3 mph 40 % 0 in
23:27 75.9 °F 49.8 °F 29.9 in WSW 2.3 mph 2.3 mph 40 % 0 in
23:32 75.7 °F 50.4 °F 29.8 in WSW 1.4 mph 1.4 mph 41 % 0 in
23:37 75.7 °F 50.4 °F 29.8 in WSW 3.8 mph 3.8 mph 41 % 0 in
23:42 75.9 °F 50.5 °F 29.8 in WSW 3.5 mph 3.5 mph 41 % 0 in
23:47 75.7 °F 50.4 °F 29.8 in WSW 3.5 mph 3.5 mph 41 % 0 in
23:52 75.6 °F 50.9 °F 29.8 in SW 2.4 mph 2.4 mph 42 % 0 in
23:57 75.6 °F 50.9 °F 29.8 in West 2.3 mph 2.3 mph 42 % 0 in
Meteo Sesrovires
Elogis d' Weather Underground - 3.5 mb

Guio original per  Jim McMurry - jmcmurry@mwt.net Adaptat per a la plantilla per  Wim van der Kuil - Leuven-Template.eu

Trobareu la nostra informacio del temps tambe a:

Weather Underground

AWEKAS